Main page
METAR-TAF:

METAR-TAF

Airports :

Farnborough Airport

Farnborough, England

latitude: 51-17N, longitude: 000-46W, elevation: 65 m

Current weather observation

The report was made 10 minutes ago, at 11:20 UTC
Wind 14 kt from the Southwest, varying between South and West/Southwest
Temperature 17°C
Humidity 72%
Pressure 997 hPa
Visibility 10 km or more

METAR: EGLF 091120Z AUTO 22014KT 180V240 9999 BKN020/// BKN026/// BKN030/// 17/12 Q0997

Time: 12:30 (11:30 UTC)

Forecast

The report was made 3 hours and 23 minutes ago, at 08:07 UTC
Forecast valid from 09 at 09 UTC to 09 at 18 UTC
Wind 12 kt from the South/Southwest
Visibility 10 km or more
Scattered clouds at a height of 2000 ft
Probability 30%
from 09 at 17 UTC to 09 at 18 UTC
Wind 8 kt from the Southeast

TAF: EGLF 090807Z 0909/0918 20012KT 9999 SCT020 PROB30 0917/0918 14008KT

Weather observations and forecasts of more than 4000 airports (METAR and TAF reports).

The available stations are represented by yellow and red dots on the map.

Hover mouse over dot to see the name of the station.

Then click to see weather observations and forecasts.

To change the map : click on the green buttons with a black cross to zoom in, on the green button with a dash to zoom out, or on the green arrows for adjacent maps.


METAR-TAF: